Meteo Giornale » Osservazioni meteo Italia » Lamezia Terme

ore: 16:50 - Osservazioni Meteo Lamezia Terme
Lat. 38° 54' N Lon. 16° 15' E Alt. 15 metri s.l.m.

nuvoloso Europe/Rome

10 °C

Nuvoloso

Temp. 24 Ore

3 °C

12 °C

Est/Nord-Est

20.3 Km/h

Dew point 6 °C

Umidità 76 %

Visibilità  10 Km

Il sole sorge alle ore 07:02

Il sole tramonta alle ore 16:34

Data e Ora Cielo e Fenomeni T °C DP °C Um. % Pres. hPa Vis. km Vento km/h
Oggi h: 16:50 nuvoloso Nuvoloso 10 6 76 1018 10 E/NE 20.3
Oggi h: 15:50 nuvoloso Nuvoloso 11 6 71 1019 10 E/NE 22.2
Oggi h: 14:50 coperto_pioggia Pioviggine Leggera 11 6 71 1019 10 E 18.5
Oggi h: 13:50 molto_nuvoloso Molto Nuvoloso 11 6 71 1019 10 E/NE 18.5
Oggi h: 12:50 molto_nuvoloso Molto Nuvoloso 12 6 66 1019 10 E 18.5
Oggi h: 11:50 molto_nuvoloso Molto Nuvoloso 11 5 66 1020 10 E 20.3
Oggi h: 10:50 molto_nuvoloso Molto Nuvoloso 11 4 61 1020 10 E 20.3
Oggi h: 09:50 nuvoloso Nuvoloso 10 4 66 1020 10 E/NE 18.5
Oggi h: 08:50 nuvoloso Nuvoloso 7 3 75 1020 10 NE 16.7
Oggi h: 07:50 poco_nuvoloso Poco Nuvoloso 7 3 75 1020 10 NE 18.5
Oggi h: 06:50 poco_nuvoloso Poco Nuvoloso 6 2 75 1019 10 NE 18.5
Oggi h: 05:50 poco_nuvoloso Poco Nuvoloso 5 2 80 1019 10 NE 13
Oggi h: 04:50 molto_nuvoloso Molto Nuvoloso 6 2 75 1019 10 NE 16.7
Oggi h: 02:50 molto_nuvoloso Molto Nuvoloso 5 3 86 1019 10 E/NE 7.4
Oggi h: 01:50 coperto_pioggia Pioviggine Leggera 6 3 81 1019 10 NE 11.1
Oggi h: 00:50 sereno Sereno 4 2 86 1019 10 E/NE 13
Ieri h: 23:50 poco_nuvoloso Poco Nuvoloso 3 2 93 1019 10 E 11.1
Ieri h: 22:50 poco_nuvoloso Poco Nuvoloso 3 2 93 1019 10 E 11.1
Ieri h: 21:50 poco_nuvoloso Poco Nuvoloso 4 2 86 1019 10 E/NE 11.1
Ieri h: 20:50 poco_nuvoloso Poco Nuvoloso 4 2 86 1018 10 E 13
Ieri h: 19:50 poco_nuvoloso Poco Nuvoloso 4 3 93 1018 10 E 11.1
Ieri h: 18:50 poco_nuvoloso Poco Nuvoloso 5 4 93 1018 10 E 11.1
Ieri h: 17:50 poco_nuvoloso Poco Nuvoloso 7 3 75 1017 10 E/NE 7.4